createdAt,value
2019-01-04T00:00:32.956Z,99.99
2019-01-04T00:01:32.985Z,99.99
2019-01-04T00:02:33.051Z,99.99
2019-01-04T00:03:33.071Z,99.99
2019-01-04T00:04:33.113Z,99.99
2019-01-04T00:05:33.145Z,99.99
2019-01-04T00:06:33.188Z,99.99
2019-01-04T00:07:33.270Z,99.99
2019-01-04T00:08:33.272Z,99.99
2019-01-04T00:09:33.291Z,99.99
2019-01-04T00:10:33.330Z,99.99
2019-01-04T00:11:33.372Z,99.99
2019-01-04T00:12:33.489Z,99.99
2019-01-04T00:13:33.473Z,99.99
2019-01-04T00:14:33.483Z,99.99
2019-01-04T00:15:33.530Z,99.99
2019-01-04T00:16:33.589Z,99.99
2019-01-04T00:17:33.631Z,99.99
2019-01-04T00:18:33.658Z,99.99
2019-01-04T00:19:33.682Z,99.99
2019-01-04T00:20:33.715Z,99.99
2019-01-04T00:21:33.752Z,99.99
2019-01-04T00:22:33.812Z,99.99
2019-01-04T00:23:33.858Z,99.99
2019-01-04T00:24:33.870Z,99.99
2019-01-04T00:25:33.916Z,99.99
2019-01-04T00:26:33.961Z,99.99
2019-01-04T00:27:33.986Z,99.99
2019-01-04T00:28:34.051Z,99.99
2019-01-04T00:29:34.064Z,99.99
2019-01-04T00:30:34.123Z,99.99
2019-01-04T00:31:34.133Z,99.99
2019-01-04T00:32:34.184Z,99.99
2019-01-04T00:33:34.234Z,99.99
2019-01-04T00:34:34.253Z,99.99
2019-01-04T00:35:34.288Z,99.99
2019-01-04T00:36:34.325Z,99.99
2019-01-04T00:37:34.434Z,99.99
2019-01-04T00:38:34.431Z,99.99
2019-01-04T00:39:34.452Z,99.99
2019-01-04T00:40:34.484Z,99.99
2019-01-04T00:41:34.521Z,99.99
2019-01-04T00:42:34.558Z,99.99
2019-01-04T00:43:34.624Z,99.99
2019-01-04T00:44:34.780Z,99.99
2019-01-04T00:45:34.680Z,99.99
2019-01-04T00:46:34.714Z,99.99
2019-01-04T00:47:34.758Z,99.99
2019-01-04T00:48:34.790Z,99.99
2019-01-04T00:49:34.862Z,99.99
2019-01-04T00:50:34.880Z,99.99
2019-01-04T00:51:34.912Z,99.99
2019-01-04T00:52:34.948Z,99.99
2019-01-04T00:53:34.988Z,99.99
2019-01-04T00:54:35.052Z,99.99
2019-01-04T00:55:35.092Z,99.99
2019-01-04T00:56:35.096Z,99.99
2019-01-04T00:57:35.135Z,99.99
2019-01-04T00:58:35.174Z,99.99
2019-01-04T00:59:35.231Z,99.99
2019-01-04T01:00:35.249Z,99.99
2019-01-04T01:01:35.298Z,99.99
2019-01-04T01:02:35.351Z,99.99
2019-01-04T01:03:35.377Z,99.99
2019-01-04T01:04:35.431Z,99.99
2019-01-04T01:05:35.457Z,99.99
2019-01-04T01:06:35.484Z,99.99
2019-01-04T01:07:35.531Z,99.99
2019-01-04T01:08:35.558Z,99.99
2019-01-04T01:09:35.719Z,99.99
2019-01-04T01:10:35.675Z,99.99
2019-01-04T01:11:35.677Z,99.99
2019-01-04T01:12:35.719Z,99.99
2019-01-04T01:13:35.748Z,99.99
2019-01-04T01:14:35.794Z,99.99
2019-01-04T01:15:35.845Z,99.99
2019-01-04T01:16:35.868Z,99.99
2019-01-04T01:17:35.906Z,99.99
2019-01-04T01:18:35.945Z,99.99
2019-01-04T01:19:35.984Z,99.99
2019-01-04T01:20:36.095Z,99.99
2019-01-04T01:21:36.058Z,99.99
2019-01-04T01:22:36.104Z,99.99
2019-01-04T01:23:36.143Z,99.99
2019-01-04T01:24:36.177Z,99.99
2019-01-04T01:25:36.237Z,99.99
2019-01-04T01:26:36.248Z,99.99
2019-01-04T01:27:36.378Z,99.99
2019-01-04T01:28:36.324Z,99.99
2019-01-04T01:29:36.364Z,99.99
2019-01-04T01:30:36.425Z,99.99
2019-01-04T01:31:36.440Z,99.99
2019-01-04T01:32:36.476Z,99.99
2019-01-04T01:33:36.515Z,99.99
2019-01-04T01:34:36.570Z,99.99
2019-01-04T01:35:36.611Z,99.99
2019-01-04T01:36:36.646Z,99.99
2019-01-04T01:37:36.676Z,99.99
2019-01-04T01:38:36.703Z,99.99
2019-01-04T01:39:36.747Z,99.99
2019-01-04T01:40:36.816Z,99.99
2019-01-04T01:41:36.852Z,99.99
2019-01-04T01:42:36.860Z,99.99
2019-01-04T01:43:36.905Z,99.99
2019-01-04T01:44:36.931Z,99.99
2019-01-04T01:45:37.010Z,99.99
2019-01-04T01:46:37.037Z,99.99
2019-01-04T01:47:37.043Z,99.99
2019-01-04T01:48:37.092Z,99.99
2019-01-04T01:49:37.124Z,99.99
2019-01-04T01:50:37.164Z,99.99
2019-01-04T01:51:37.229Z,99.99
2019-01-04T01:52:37.247Z,99.99
2019-01-04T01:53:37.275Z,99.99
2019-01-04T01:54:37.319Z,99.99
2019-01-04T01:55:37.357Z,99.99
2019-01-04T01:56:37.415Z,99.99
2019-01-04T01:57:37.459Z,99.99
2019-01-04T01:58:37.463Z,99.99
2019-01-04T01:59:37.501Z,99.99
2019-01-04T02:00:37.539Z,99.99
2019-01-04T02:01:37.618Z,99.99
2019-01-04T02:02:37.617Z,99.99
2019-01-04T02:03:37.654Z,99.99
2019-01-04T02:04:37.693Z,99.99
2019-01-04T02:05:37.728Z,99.99
2019-01-04T02:06:37.792Z,99.99
2019-01-04T02:07:37.828Z,99.99
2019-01-04T02:08:37.844Z,99.99
2019-01-04T02:09:37.882Z,99.99
2019-01-04T02:10:37.926Z,99.99
2019-01-04T02:11:37.957Z,99.99
2019-01-04T02:12:38.019Z,99.99
2019-01-04T02:13:38.037Z,99.99
2019-01-04T02:14:38.073Z,99.99
2019-01-04T02:15:38.108Z,99.99
2019-01-04T02:16:38.160Z,99.99
2019-01-04T02:17:38.345Z,99.99
2019-01-04T02:18:38.233Z,99.99
2019-01-04T02:19:38.260Z,99.99
2019-01-04T02:20:38.307Z,99.99
2019-01-04T02:21:38.354Z,99.99
2019-01-04T02:22:38.393Z,99.99
2019-01-04T02:23:38.422Z,99.99
2019-01-04T02:24:38.449Z,99.99
2019-01-04T02:25:38.487Z,99.99
2019-01-04T02:26:38.528Z,99.99
2019-01-04T02:27:38.583Z,99.99
2019-01-04T02:28:38.623Z,99.99
2019-01-04T02:29:38.656Z,99.99
2019-01-04T02:30:38.680Z,99.99
2019-01-04T02:31:38.727Z,99.99
2019-01-04T02:32:38.753Z,99.99
2019-01-04T02:33:38.820Z,99.99
2019-01-04T02:34:38.835Z,99.99
2019-01-04T02:35:38.912Z,99.99
2019-01-04T02:36:38.906Z,99.99
2019-01-04T02:37:38.943Z,99.99
2019-01-04T02:38:39.012Z,99.99
2019-01-04T02:39:39.024Z,99.99
2019-01-04T02:40:39.061Z,99.99
2019-01-04T02:41:39.097Z,99.99
2019-01-04T02:42:39.273Z,99.99
2019-01-04T02:43:39.206Z,99.99
2019-01-04T02:44:39.223Z,99.99
2019-01-04T02:45:39.252Z,99.99
2019-01-04T02:46:39.291Z,99.99
2019-01-04T02:47:39.345Z,99.99
2019-01-04T02:48:39.414Z,99.99
2019-01-04T02:49:39.414Z,99.99
2019-01-04T02:50:39.458Z,99.99
2019-01-04T02:51:39.484Z,99.99
2019-01-04T02:52:39.525Z,99.99
2019-01-04T02:53:39.601Z,99.99
2019-01-04T02:54:39.612Z,99.99
2019-01-04T02:55:39.640Z,99.99
2019-01-04T02:56:39.678Z,99.99
2019-01-04T02:57:39.731Z,99.99
2019-01-04T02:58:39.753Z,99.99
2019-01-04T02:59:39.818Z,99.99
2019-01-04T03:00:39.828Z,99.99
2019-01-04T03:01:39.869Z,99.99
2019-01-04T03:02:39.906Z,99.99
2019-01-04T03:03:39.945Z,99.99
2019-01-04T03:04:40.005Z,99.99
2019-01-04T03:05:40.028Z,99.99
2019-01-04T03:06:40.061Z,99.99
2019-01-04T03:07:40.137Z,99.99
2019-01-04T03:08:40.137Z,99.99
2019-01-04T03:09:40.194Z,99.99
2019-01-04T03:10:40.215Z,99.99
2019-01-04T03:11:40.258Z,99.99
2019-01-04T03:12:40.293Z,99.99
2019-01-04T03:13:40.332Z,99.99
2019-01-04T03:14:40.409Z,99.99
2019-01-04T03:15:40.407Z,99.99
2019-01-04T03:16:40.454Z,99.99
2019-01-04T03:17:40.489Z,99.99
2019-01-04T03:18:40.532Z,99.99
2019-01-04T03:19:40.602Z,99.99
2019-01-04T03:20:40.601Z,99.99
2019-01-04T03:21:40.649Z,99.99
2019-01-04T03:22:40.733Z,99.99
2019-01-04T03:23:40.716Z,99.99
2019-01-04T03:24:40.793Z,99.99
2019-01-04T03:25:40.799Z,99.99
2019-01-04T03:26:40.831Z,99.99
2019-01-04T03:27:40.873Z,99.99
2019-01-04T03:28:40.918Z,99.99
2019-01-04T03:29:40.967Z,99.99
2019-01-04T03:30:41.020Z,99.99
2019-01-04T03:31:41.029Z,99.99
2019-01-04T03:32:41.063Z,99.99
2019-01-04T03:33:41.103Z,99.99
2019-01-04T03:34:41.140Z,99.99
2019-01-04T03:35:41.210Z,99.99
2019-01-04T03:36:41.226Z,99.99
2019-01-04T03:37:41.257Z,99.99
2019-01-04T03:38:41.306Z,99.99
2019-01-04T03:39:41.338Z,99.99
2019-01-04T03:40:41.399Z,99.99
2019-01-04T03:41:41.462Z,99.99
2019-01-04T03:42:41.448Z,99.99
2019-01-04T03:43:41.490Z,99.99
2019-01-04T03:44:41.535Z,99.99
2019-01-04T03:45:41.604Z,99.99
2019-01-04T03:46:41.607Z,99.99
2019-01-04T03:47:41.645Z,99.99
2019-01-04T03:48:41.684Z,99.99
2019-01-04T03:49:41.720Z,99.99
2019-01-04T03:50:41.793Z,99.99
2019-01-04T03:51:41.799Z,99.99
2019-01-04T03:52:41.846Z,99.99
2019-01-04T03:53:41.884Z,99.99
2019-01-04T03:54:41.915Z,99.99
2019-01-04T03:55:41.991Z,99.99
2019-01-04T03:56:41.990Z,99.99
2019-01-04T03:57:42.030Z,99.99
2019-01-04T03:58:42.070Z,99.99
2019-01-04T03:59:42.118Z,99.99
2019-01-04T04:00:42.187Z,99.99
2019-01-04T04:01:42.186Z,99.99
2019-01-04T04:02:42.241Z,99.99
2019-01-04T04:03:42.271Z,99.99
2019-01-04T04:04:42.301Z,99.99
2019-01-04T04:05:42.340Z,99.99
2019-01-04T04:06:42.474Z,99.99
2019-01-04T04:07:42.438Z,99.99
2019-01-04T04:08:42.469Z,99.99
2019-01-04T04:09:42.496Z,99.99
2019-01-04T04:10:42.546Z,99.99
2019-01-04T04:11:42.573Z,99.99
2019-01-04T04:12:42.637Z,99.99
2019-01-04T04:13:42.649Z,99.99
2019-01-04T04:14:42.686Z,99.99
2019-01-04T04:15:42.724Z,99.99
2019-01-04T04:16:42.767Z,99.99
2019-01-04T04:17:42.824Z,99.99
2019-01-04T04:18:42.873Z,99.99
2019-01-04T04:19:42.883Z,99.99
2019-01-04T04:20:42.919Z,99.99
2019-01-04T04:21:42.960Z,99.99
2019-01-04T04:22:43.011Z,99.99
2019-01-04T04:23:43.053Z,99.99
2019-01-04T04:24:43.073Z,99.99
2019-01-04T04:25:43.108Z,99.99
2019-01-04T04:26:43.149Z,99.99
2019-01-04T04:27:43.235Z,99.99
2019-01-04T04:28:43.229Z,99.99
2019-01-04T04:29:43.261Z,99.99
2019-01-04T04:30:43.298Z,99.99
2019-01-04T04:31:43.405Z,99.99
2019-01-04T04:32:43.396Z,99.99
2019-01-04T04:33:43.413Z,99.99
2019-01-04T04:34:43.473Z,99.99
2019-01-04T04:35:43.509Z,99.99
2019-01-04T04:36:43.528Z,99.99
2019-01-04T04:37:43.571Z,99.99
2019-01-04T04:38:43.626Z,99.99
2019-01-04T04:39:44.392Z,99.99
2019-01-04T04:40:43.688Z,99.99
2019-01-04T04:41:43.725Z,99.99
2019-01-04T04:42:43.764Z,99.99
2019-01-04T04:43:43.818Z,99.99
2019-01-04T04:44:43.851Z,99.99
2019-01-04T04:45:43.874Z,99.99
2019-01-04T04:46:43.909Z,99.99
2019-01-04T04:47:43.947Z,99.99
2019-01-04T04:48:44.624Z,99.99
2019-01-04T04:49:44.044Z,99.99
2019-01-04T04:50:44.081Z,99.99
2019-01-04T04:51:44.103Z,99.99
2019-01-04T04:52:44.144Z,99.99
2019-01-04T04:53:44.198Z,99.99
2019-01-04T04:54:44.214Z,99.99
2019-01-04T04:55:44.299Z,99.99
2019-01-04T04:56:44.295Z,99.99
2019-01-04T04:57:44.338Z,99.99
2019-01-04T04:58:44.379Z,99.99
2019-01-04T04:59:44.409Z,99.99
2019-01-04T05:00:44.464Z,99.99
2019-01-04T05:01:44.490Z,99.99
2019-01-04T05:02:44.525Z,99.99
2019-01-04T05:03:44.567Z,99.99
2019-01-04T05:04:44.621Z,99.99
2019-01-04T05:05:44.632Z,99.99
2019-01-04T05:06:44.672Z,99.99
2019-01-04T05:07:44.712Z,99.99
2019-01-04T05:08:44.753Z,99.99
2019-01-04T05:09:44.807Z,99.99
2019-01-04T05:10:44.821Z,99.99
2019-01-04T05:11:44.871Z,99.99
2019-01-04T05:12:44.907Z,99.99
2019-01-04T05:13:44.946Z,99.99
2019-01-04T05:14:45.030Z,99.99
2019-01-04T05:15:45.016Z,99.99
2019-01-04T05:16:45.051Z,99.99
2019-01-04T05:17:45.090Z,99.99
2019-01-04T05:18:45.128Z,99.99
2019-01-04T05:19:45.187Z,99.99
2019-01-04T05:20:45.224Z,99.99
2019-01-04T05:21:45.285Z,99.99
2019-01-04T05:22:45.302Z,99.99
2019-01-04T05:23:45.318Z,99.99
2019-01-04T05:24:45.357Z,99.99
2019-01-04T05:25:45.394Z,99.99
2019-01-04T05:26:45.451Z,99.99
2019-01-04T05:27:45.470Z,99.99
2019-01-04T05:28:45.513Z,99.99
2019-01-04T05:29:45.550Z,99.99
2019-01-04T05:30:45.581Z,99.99
2019-01-04T05:31:45.650Z,99.99
2019-01-04T05:32:45.675Z,99.99
2019-01-04T05:33:45.694Z,99.99
2019-01-04T05:34:45.737Z,99.99
2019-01-04T05:35:45.801Z,99.99
2019-01-04T05:36:45.819Z,99.99
2019-01-04T05:37:45.855Z,99.99
2019-01-04T05:38:45.898Z,99.99
2019-01-04T05:39:45.979Z,99.99
2019-01-04T05:40:45.980Z,99.99
2019-01-04T05:41:45.999Z,99.99
2019-01-04T05:42:46.038Z,99.99
2019-01-04T05:43:46.073Z,99.99
2019-01-04T05:44:46.115Z,99.99
2019-01-04T05:45:46.180Z,99.99
2019-01-04T05:46:46.311Z,99.99
2019-01-04T05:47:46.221Z,99.99
2019-01-04T05:48:46.266Z,99.99
2019-01-04T05:49:46.297Z,99.99
2019-01-04T05:50:46.344Z,99.99
2019-01-04T05:51:46.401Z,99.99
2019-01-04T05:52:46.414Z,99.99
2019-01-04T05:53:46.454Z,99.99
2019-01-04T05:54:46.489Z,99.99
2019-01-04T05:55:46.526Z,99.99
2019-01-04T05:56:46.583Z,99.99
2019-01-04T05:57:46.621Z,99.99
2019-01-04T05:58:46.637Z,99.99
2019-01-04T05:59:46.675Z,99.99
2019-01-04T06:00:46.714Z,99.99
2019-01-04T06:01:46.751Z,99.99
2019-01-04T06:02:46.814Z,99.99
2019-01-04T06:03:46.828Z,99.99
2019-01-04T06:04:46.896Z,99.99
2019-01-04T06:05:46.903Z,99.99
2019-01-04T06:06:46.937Z,99.99
2019-01-04T06:07:46.994Z,99.99
2019-01-04T06:08:47.014Z,99.99
2019-01-04T06:09:47.051Z,99.99
2019-01-04T06:10:47.090Z,99.99
2019-01-04T06:11:47.131Z,99.99
2019-01-04T06:12:47.186Z,99.99
2019-01-04T06:13:47.208Z,99.99
2019-01-04T06:14:47.268Z,99.99
2019-01-04T06:15:47.294Z,99.99
2019-01-04T06:16:47.314Z,99.99
2019-01-04T06:17:47.380Z,99.99
2019-01-04T06:18:47.406Z,99.99
2019-01-04T06:19:47.429Z,99.99
2019-01-04T06:20:47.476Z,99.99
2019-01-04T06:21:47.503Z,99.99
2019-01-04T06:22:47.576Z,99.99
2019-01-04T06:23:47.596Z,99.99
2019-01-04T06:24:47.613Z,99.99
2019-01-04T06:25:47.650Z,99.99
2019-01-04T06:26:47.694Z,99.99
2019-01-04T06:27:47.752Z,99.99
2019-01-04T06:28:47.783Z,99.99
2019-01-04T06:29:47.804Z,99.99
2019-01-04T06:30:47.849Z,99.99
2019-01-04T06:31:47.886Z,99.99
2019-01-04T06:32:47.920Z,99.99
2019-01-04T06:33:47.976Z,99.99
2019-01-04T06:34:47.994Z,99.99
2019-01-04T06:35:48.043Z,99.99
2019-01-04T06:36:48.071Z,99.99
2019-01-04T06:37:48.104Z,99.99
2019-01-04T06:38:48.190Z,99.99
2019-01-04T06:39:48.180Z,99.99
2019-01-04T06:40:48.220Z,99.99
2019-01-04T06:41:48.264Z,99.99
2019-01-04T06:42:48.291Z,99.99
2019-01-04T06:43:48.351Z,99.99
2019-01-04T06:44:48.386Z,99.99
2019-01-04T06:45:48.405Z,99.99
2019-01-04T06:46:48.446Z,99.99
2019-01-04T06:47:48.480Z,99.99
2019-01-04T06:48:48.544Z,99.99
2019-01-04T06:49:48.591Z,99.99
2019-01-04T06:50:48.599Z,99.99
2019-01-04T06:51:48.630Z,99.99
2019-01-04T06:52:48.669Z,99.99
2019-01-04T06:53:48.713Z,99.99
2019-01-04T06:54:48.912Z,99.99
2019-01-04T06:55:48.796Z,99.99
2019-01-04T06:56:48.819Z,99.99
2019-01-04T06:57:48.864Z,99.99
2019-01-04T06:58:48.893Z,99.99
2019-01-04T06:59:48.950Z,99.99
2019-01-04T07:00:48.970Z,99.99
2019-01-04T07:01:49.014Z,99.99
2019-01-04T07:02:49.063Z,99.99
2019-01-04T07:03:49.089Z,99.99
2019-01-04T07:04:49.137Z,99.99
2019-01-04T07:05:49.167Z,99.99
2019-01-04T07:06:49.199Z,99.99
2019-01-04T07:07:49.236Z,99.99
2019-01-04T07:08:49.271Z,99.99
2019-01-04T07:09:49.346Z,99.99
2019-01-04T07:10:49.346Z,99.99
2019-01-04T07:11:49.391Z,99.99
2019-01-04T07:12:49.482Z,99.99
2019-01-04T07:13:49.469Z,99.99
2019-01-04T07:14:49.533Z,99.99
2019-01-04T07:15:49.532Z,99.99
2019-01-04T07:16:49.579Z,99.99
2019-01-04T07:17:49.609Z,99.99
2019-01-04T07:18:49.657Z,99.99
2019-01-04T07:19:49.776Z,99.99
2019-01-04T07:20:49.741Z,99.99
2019-01-04T07:21:49.760Z,99.99
2019-01-04T07:22:49.798Z,99.99
2019-01-04T07:23:49.834Z,99.99
2019-01-04T07:24:49.874Z,99.99
2019-01-04T07:25:49.954Z,99.99
2019-01-04T07:26:49.948Z,99.99
2019-01-04T07:27:49.999Z,99.99
2019-01-04T07:28:50.042Z,99.99
2019-01-04T07:29:50.060Z,99.99
2019-01-04T07:30:50.139Z,99.99
2019-01-04T07:31:50.144Z,99.99
2019-01-04T07:32:50.174Z,99.99
2019-01-04T07:33:50.215Z,99.99
2019-01-04T07:34:50.248Z,99.99
2019-01-04T07:35:50.309Z,99.99
2019-01-04T07:36:50.335Z,99.99
2019-01-04T07:37:50.437Z,99.99
2019-01-04T07:38:50.416Z,99.99
2019-01-04T07:39:50.440Z,99.99
2019-01-04T07:40:50.524Z,99.99
2019-01-04T07:41:50.514Z,99.99
2019-01-04T07:42:50.551Z,99.99
2019-01-04T07:43:50.598Z,99.99
2019-01-04T07:44:50.630Z,99.99
2019-01-04T07:45:50.684Z,99.99
2019-01-04T07:46:51.248Z,99.99
2019-01-04T07:47:50.744Z,99.99
2019-01-04T07:48:50.775Z,99.99
2019-01-04T07:49:50.825Z,99.99
2019-01-04T07:50:50.854Z,99.99
2019-01-04T07:51:50.936Z,99.99
2019-01-04T07:52:50.934Z,99.99
2019-01-04T07:53:50.966Z,99.99
2019-01-04T07:54:51.017Z,99.99
2019-01-04T07:55:51.071Z,99.99
2019-01-04T07:56:51.112Z,99.99
2019-01-04T07:57:51.118Z,99.99
2019-01-04T07:58:51.166Z,99.99
2019-01-04T07:59:51.208Z,99.99
2019-01-04T08:00:51.238Z,99.99
2019-01-04T08:01:51.290Z,99.99
2019-01-04T08:02:51.356Z,99.99
2019-01-04T08:03:51.366Z,99.99
2019-01-04T08:04:51.387Z,99.99
2019-01-04T08:05:51.430Z,99.99
2019-01-04T08:06:51.465Z,99.99
2019-01-04T08:07:51.517Z,99.99
2019-01-04T08:08:51.558Z,99.99
2019-01-04T08:09:51.574Z,99.99
2019-01-04T08:10:51.615Z,99.99
2019-01-04T08:11:51.662Z,99.99
2019-01-04T08:12:51.693Z,99.99
2019-01-04T08:13:51.756Z,99.99
2019-01-04T08:14:51.781Z,99.99
2019-01-04T08:15:51.804Z,99.99
2019-01-04T08:16:51.849Z,99.99
2019-01-04T08:17:51.882Z,99.99
2019-01-04T08:18:51.939Z,99.99
2019-01-04T08:19:51.957Z,99.99
2019-01-04T08:20:52.062Z,99.99
2019-01-04T08:21:52.042Z,99.99
2019-01-04T08:22:52.076Z,99.99
2019-01-04T08:23:52.149Z,99.99
2019-01-04T08:24:52.159Z,99.99
2019-01-04T08:25:52.211Z,99.99
2019-01-04T08:26:52.225Z,99.99
2019-01-04T08:27:52.349Z,99.99
2019-01-04T08:28:52.332Z,99.99
2019-01-04T08:29:52.342Z,99.99
2019-01-04T08:30:52.390Z,99.99
2019-01-04T08:31:52.423Z,99.99
2019-01-04T08:32:52.461Z,99.99
2019-01-04T08:33:52.515Z,99.99
2019-01-04T08:34:52.568Z,99.99
2019-01-04T08:35:52.576Z,99.99
2019-01-04T08:36:52.619Z,99.99
2019-01-04T08:37:52.650Z,99.99
2019-01-04T08:38:52.724Z,99.99
2019-01-04T08:39:52.754Z,99.99
2019-01-04T08:40:52.768Z,99.99
2019-01-04T08:41:52.819Z,99.99
2019-01-04T08:42:52.845Z,99.99
2019-01-04T08:43:52.889Z,99.99
2019-01-04T08:44:52.955Z,99.99
2019-01-04T08:45:52.962Z,99.99
2019-01-04T08:46:52.999Z,99.99
2019-01-04T08:47:53.039Z,99.99
2019-01-04T08:48:53.075Z,99.99
2019-01-04T08:49:53.146Z,99.99
2019-01-04T08:50:53.161Z,99.99
2019-01-04T08:51:53.192Z,99.99
2019-01-04T08:52:53.229Z,99.99
2019-01-04T08:53:53.279Z,99.99
2019-01-04T08:54:53.327Z,99.99
2019-01-04T08:55:53.345Z,99.99
2019-01-04T08:56:53.394Z,99.99
2019-01-04T08:57:53.426Z,99.99
2019-01-04T08:58:53.461Z,99.99
2019-01-04T08:59:53.518Z,99.99
2019-01-04T09:00:53.587Z,99.99
2019-01-04T09:01:53.588Z,99.99
2019-01-04T09:02:53.626Z,99.99
2019-01-04T09:03:53.656Z,99.99
2019-01-04T09:04:53.714Z,99.99
2019-01-04T09:05:53.744Z,99.99
2019-01-04T09:06:53.770Z,99.99
2019-01-04T09:07:53.820Z,99.99
2019-01-04T09:08:53.850Z,99.99
2019-01-04T09:09:53.911Z,99.99
2019-01-04T09:10:53.950Z,99.99
2019-01-04T09:11:53.986Z,99.99
2019-01-04T09:12:54.001Z,99.99
2019-01-04T09:13:54.048Z,99.99
2019-01-04T09:14:54.085Z,99.99
2019-01-04T09:15:54.145Z,99.99
2019-01-04T09:16:54.170Z,99.99
2019-01-04T09:17:54.221Z,99.99
2019-01-04T09:18:54.242Z,99.99
2019-01-04T09:19:54.278Z,99.99
2019-01-04T09:20:54.350Z,99.99
2019-01-04T09:21:54.356Z,99.99
2019-01-04T09:22:54.405Z,99.99
2019-01-04T09:23:54.434Z,99.99
2019-01-04T09:24:54.471Z,99.99
2019-01-04T09:25:54.539Z,99.99
2019-01-04T09:26:54.571Z,99.99
2019-01-04T09:27:54.594Z,99.99
2019-01-04T09:28:54.645Z,99.99
2019-01-04T09:29:54.671Z,99.99
2019-01-04T09:30:54.711Z,99.99
2019-01-04T09:31:54.770Z,99.99
2019-01-04T09:32:54.793Z,99.99
2019-01-04T09:33:54.831Z,99.99
2019-01-04T09:34:54.866Z,99.99
2019-01-04T09:35:54.901Z,99.99
2019-01-04T09:36:54.972Z,99.99
2019-01-04T09:37:54.989Z,99.99
2019-01-04T09:38:55.019Z,99.99
2019-01-04T09:39:55.063Z,99.99
2019-01-04T09:40:55.102Z,99.99
2019-01-04T09:41:55.181Z,99.99
2019-01-04T09:42:55.179Z,99.99
2019-01-04T09:43:55.223Z,99.99
2019-01-04T09:44:55.259Z,99.99
2019-01-04T09:45:55.304Z,99.99
2019-01-04T09:46:55.362Z,99.99
2019-01-04T09:47:55.373Z,99.99
2019-01-04T09:48:55.419Z,99.99
2019-01-04T09:49:55.457Z,99.99
2019-01-04T09:50:55.493Z,99.99
2019-01-04T09:51:55.646Z,99.99
2019-01-04T09:52:55.575Z,99.99
2019-01-04T09:53:55.615Z,99.99
2019-01-04T09:54:55.653Z,99.99
2019-01-04T09:55:55.706Z,99.99
2019-01-04T09:56:55.758Z,99.99
2019-01-04T09:57:55.847Z,99.99
2019-01-04T09:58:55.842Z,99.99
2019-01-04T09:59:55.857Z,99.99
2019-01-04T10:00:55.901Z,99.99
2019-01-04T10:01:55.952Z,99.99
2019-01-04T10:02:55.974Z,99.99
2019-01-04T10:03:56.014Z,99.99
2019-01-04T10:04:56.059Z,99.99
2019-01-04T10:05:56.098Z,99.99
2019-01-04T10:06:56.166Z,99.99
2019-01-04T10:07:56.196Z,99.99
2019-01-04T10:08:56.218Z,99.99
2019-01-04T10:09:56.262Z,99.99
2019-01-04T10:10:56.305Z,99.99
2019-01-04T10:11:56.338Z,99.99
2019-01-04T10:12:56.403Z,99.99
2019-01-04T10:13:56.422Z,99.99
2019-01-04T10:14:56.463Z,99.99
2019-01-04T10:15:56.504Z,99.99
2019-01-04T10:16:56.538Z,99.99
2019-01-04T10:17:56.610Z,99.99
2019-01-04T10:18:56.782Z,99.99
2019-01-04T10:19:56.652Z,99.99
2019-01-04T10:20:56.699Z,99.99
2019-01-04T10:21:56.733Z,99.99
2019-01-04T10:22:56.794Z,99.99
2019-01-04T10:23:56.901Z,99.99
2019-01-04T10:24:56.854Z,99.99
2019-01-04T10:25:56.901Z,99.99
2019-01-04T10:26:56.932Z,99.99
2019-01-04T10:27:56.981Z,99.99
2019-01-04T10:28:57.040Z,99.99
2019-01-04T10:29:57.054Z,99.99
2019-01-04T10:30:57.264Z,99.99
2019-01-04T10:31:57.137Z,99.99
2019-01-04T10:32:57.180Z,99.99
2019-01-04T10:33:57.252Z,99.99
2019-01-04T10:34:57.258Z,99.99
2019-01-04T10:35:57.298Z,99.99
2019-01-04T10:36:57.351Z,98.96
2019-01-04T10:37:57.389Z,97.02
2019-01-04T10:38:57.445Z,97.77
2019-01-04T10:39:57.491Z,97.77
2019-01-04T10:40:57.517Z,98.91
2019-01-04T10:41:57.547Z,98.63
2019-01-04T10:42:57.586Z,99.38
2019-01-04T10:43:57.629Z,98.06
2019-01-04T10:44:57.698Z,98.34
2019-01-04T10:45:57.712Z,99.66
2019-01-04T10:46:57.773Z,99.99
2019-01-04T10:47:57.803Z,99.99
2019-01-04T10:48:57.860Z,99.99
2019-01-04T10:49:57.900Z,99.99
2019-01-04T10:50:57.928Z,99.99
2019-01-04T10:51:57.960Z,99.99
2019-01-04T10:52:57.999Z,99.99
2019-01-04T10:53:58.062Z,99.99
2019-01-04T10:54:58.081Z,99.99
2019-01-04T10:55:58.238Z,99.99
2019-01-04T10:56:58.162Z,99.99
2019-01-04T10:57:58.206Z,99.99
2019-01-04T10:58:58.252Z,99.19
2019-01-04T10:59:58.307Z,98.77
2019-01-04T11:00:58.339Z,98.11
2019-01-04T11:01:58.364Z,98.49
2019-01-04T11:02:58.414Z,98.39
2019-01-04T11:03:58.444Z,97.92
2019-01-04T11:04:58.532Z,96.31
2019-01-04T11:05:58.543Z,96.12
2019-01-04T11:06:58.564Z,97.92
2019-01-04T11:07:58.609Z,98.58
2019-01-04T11:08:58.645Z,97.92
2019-01-04T11:09:58.725Z,98.68
2019-01-04T11:10:58.763Z,99.62
2019-01-04T11:11:58.785Z,98.58
2019-01-04T11:12:58.812Z,98.39
2019-01-04T11:13:58.858Z,98.11
2019-01-04T11:14:58.915Z,98.68
2019-01-04T11:15:58.974Z,98.77
2019-01-04T11:16:58.973Z,99.33
2019-01-04T11:17:59.019Z,98.30
2019-01-04T11:18:59.081Z,99.05
2019-01-04T11:19:59.130Z,98.39
2019-01-04T11:20:59.198Z,97.82
2019-01-04T11:21:59.173Z,97.77
2019-01-04T11:22:59.220Z,98.39
2019-01-04T11:23:59.267Z,97.44
2019-01-04T11:24:59.293Z,96.69
2019-01-04T11:25:59.357Z,97.73
2019-01-04T11:26:59.377Z,97.63
2019-01-04T11:27:59.433Z,96.12
2019-01-04T11:28:59.459Z,96.59
2019-01-04T11:29:59.498Z,98.39
2019-01-04T11:30:59.556Z,97.06
2019-01-04T11:31:59.576Z,95.26
2019-01-04T11:32:59.628Z,94.42
2019-01-04T11:33:59.668Z,94.98
2019-01-04T11:34:59.700Z,95.74
2019-01-04T11:35:59.762Z,95.45
2019-01-04T11:36:59.783Z,95.83
2019-01-04T11:37:59.822Z,94.98
2019-01-04T11:38:59.871Z,94.79
2019-01-04T11:39:59.905Z,94.89
2019-01-04T11:40:59.971Z,94.04
2019-01-04T11:42:00.032Z,95.36
2019-01-04T11:43:00.033Z,96.88
2019-01-04T11:44:00.194Z,96.59
2019-01-04T11:45:00.123Z,96.21
2019-01-04T11:46:00.155Z,95.55
2019-01-04T11:47:00.233Z,93.65
2019-01-04T11:48:00.258Z,94.32
2019-01-04T11:49:00.275Z,93.75
2019-01-04T11:50:00.315Z,94.84
2019-01-04T11:51:00.376Z,93.89
2019-01-04T11:52:00.411Z,92.28
2019-01-04T11:53:00.436Z,92.09
2019-01-04T11:54:00.473Z,90.95
2019-01-04T11:55:00.531Z,89.96
2019-01-04T11:56:00.559Z,89.39
2019-01-04T11:57:00.620Z,90.06
2019-01-04T11:58:00.657Z,90.44
2019-01-04T11:59:00.679Z,90.53
2019-01-04T12:00:00.731Z,90.44
2019-01-04T12:01:00.765Z,90.44
2019-01-04T12:02:00.825Z,91.67
2019-01-04T12:03:00.868Z,91.67
2019-01-04T12:04:02.112Z,90.15
2019-01-04T12:05:00.960Z,90.06
2019-01-04T12:06:00.970Z,89.77
2019-01-04T12:07:01.013Z,89.77
2019-01-04T12:08:01.084Z,89.11
2019-01-04T12:09:01.124Z,90.34
2019-01-04T12:10:01.136Z,90.44
2019-01-04T12:11:01.183Z,89.96
2019-01-04T12:12:01.227Z,89.96
2019-01-04T12:13:01.290Z,89.39
2019-01-04T12:14:01.300Z,90.44
2019-01-04T12:15:01.366Z,90.81
2019-01-04T12:16:01.397Z,91.86
2019-01-04T12:17:01.443Z,91.29
2019-01-04T12:18:01.525Z,91.67
2019-01-04T12:19:01.507Z,91.38
2019-01-04T12:20:01.546Z,90.63
2019-01-04T12:21:01.599Z,88.92
2019-01-04T12:22:01.649Z,88.92
2019-01-04T12:23:01.689Z,90.15
2019-01-04T12:24:01.753Z,90.63
2019-01-04T12:25:01.784Z,90.53
2019-01-04T12:26:01.796Z,90.91
2019-01-04T12:27:01.836Z,91.19
2019-01-04T12:28:01.890Z,93.18
2019-01-04T12:29:01.944Z,92.52
2019-01-04T12:30:01.967Z,92.52
2019-01-04T12:31:01.998Z,91.57
2019-01-04T12:32:02.049Z,93.08
2019-01-04T12:33:02.095Z,92.14
2019-01-04T12:34:02.158Z,91.38
2019-01-04T12:35:02.179Z,90.06
2019-01-04T12:36:02.204Z,90.25
2019-01-04T12:37:02.244Z,91.38
2019-01-04T12:38:02.293Z,91.38
2019-01-04T12:39:02.351Z,91.29
2019-01-04T12:40:02.374Z,91.38
2019-01-04T12:41:02.475Z,91.95
2019-01-04T12:42:02.450Z,91.29
2019-01-04T12:43:02.491Z,92.05
2019-01-04T12:44:02.565Z,93.94
2019-01-04T12:45:02.571Z,94.98
2019-01-04T12:46:02.629Z,94.60
2019-01-04T12:47:02.679Z,94.42
2019-01-04T12:48:02.729Z,94.32
2019-01-04T12:49:02.740Z,92.05
2019-01-04T12:50:02.774Z,91.76
2019-01-04T12:51:02.825Z,91.57
2019-01-04T12:52:02.892Z,90.15
2019-01-04T12:53:02.907Z,91.00